Time;durP1;ratioP1;P1;durP2;ratioP2;P2;SDS_P1;SDS_P2;PMS_P1;PMS_P2;Temp;Humidity;BMP_temperature;BMP_pressure;BME280_temperature;BME280_humidity;BME280_pressure;Samples;Min_cycle;Max_cycle;Signal;HPM_P1;HPM_P2
2022/06/29 00:01:46;;;;;;;2.85;0.90;;;16.20;99.90;;;;;;5066592;28;20049;-52
2022/06/29 00:04:12;;;;;;;2.03;0.90;;;16.20;99.90;;;;;;5079670;28;20116;-52
2022/06/29 00:06:38;;;;;;;2.60;0.68;;;16.10;99.90;;;;;;5070431;28;20516;-52
2022/06/29 00:09:03;;;;;;;1.67;0.77;;;16.10;99.90;;;;;;5073925;28;20048;-50
2022/06/29 00:11:29;;;;;;;2.25;1.00;;;16.00;99.90;;;;;;5068982;28;20516;-52
2022/06/29 00:13:55;;;;;;;2.10;0.90;;;16.00;99.90;;;;;;5061670;28;20036;-49
2022/06/29 00:16:20;;;;;;;3.03;0.85;;;16.10;99.90;;;;;;5082031;28;20044;-52
2022/06/29 00:18:46;;;;;;;3.88;0.63;;;16.10;99.90;;;;;;5078574;28;20056;-50
2022/06/29 00:21:12;;;;;;;6.45;0.85;;;16.10;99.90;;;;;;5085841;28;20416;-51
2022/06/29 00:23:37;;;;;;;1.42;0.50;;;16.10;99.90;;;;;;5083265;28;20090;-52
2022/06/29 00:26:03;;;;;;;4.28;1.08;;;16.10;99.90;;;;;;5081642;28;20028;-50
2022/06/29 00:28:29;;;;;;;5.20;1.38;;;16.10;99.90;;;;;;5075716;28;20033;-52
2022/06/29 00:30:55;;;;;;;2.20;0.90;;;16.10;99.90;;;;;;5057093;28;20041;-51
2022/06/29 00:33:21;;;;;;;0.95;0.57;;;16.10;99.90;;;;;;5074934;28;20044;-50
2022/06/29 00:35:47;;;;;;;2.78;0.85;;;16.10;99.90;;;;;;5071804;28;20509;-49
2022/06/29 00:38:12;;;;;;;1.52;0.43;;;16.10;99.90;;;;;;5073290;28;20089;-50
2022/06/29 00:40:38;;;;;;;1.05;0.60;;;16.00;99.90;;;;;;5075534;28;20486;-52
2022/06/29 00:43:04;;;;;;;2.03;0.75;;;16.00;99.90;;;;;;5062387;28;20033;-50
2022/06/29 00:45:29;;;;;;;4.28;0.93;;;16.00;99.90;;;;;;5077567;28;20043;-53
2022/06/29 00:47:55;;;;;;;1.45;0.57;;;16.00;99.90;;;;;;5073448;28;20063;-53
2022/06/29 00:50:20;;;;;;;3.03;0.80;;;16.00;99.90;;;;;;5090010;28;20036;-50
2022/06/29 00:52:47;;;;;;;4.57;1.38;;;15.90;99.90;;;;;;5073405;28;20736;-51
2022/06/29 00:55:16;;;;;;;;;;;15.90;99.90;;;;;;5077263;28;20071;-50
2022/06/29 00:57:44;;;;;;;2.70;1.00;;;15.90;99.90;;;;;;5084452;28;19952;-54
2022/06/29 01:00:12;;;;;;;2.53;0.50;;;15.80;99.90;;;;;;5052242;28;20051;-51
2022/06/29 01:02:38;;;;;;;4.25;0.88;;;15.70;99.90;;;;;;5068329;28;20471;-52
2022/06/29 01:05:05;;;;;;;2.10;0.52;;;15.60;99.90;;;;;;5063105;28;20120;-52
2022/06/29 01:07:33;;;;;;;1.73;0.57;;;15.60;99.90;;;;;;5078613;28;20052;-49
2022/06/29 01:10:00;;;;;;;1.30;0.50;;;15.50;99.90;;;;;;5077936;28;20040;-50
2022/06/29 01:12:26;;;;;;;2.25;0.88;;;15.50;99.90;;;;;;5061224;28;20036;-50
2022/06/29 01:14:53;;;;;;;;;;;15.50;99.90;;;;;;5077773;28;20481;-50
2022/06/29 01:17:20;;;;;;;2.83;1.20;;;15.50;99.90;;;;;;5072118;28;19924;-51
2022/06/29 01:19:46;;;;;;;1.60;0.82;;;15.40;99.90;;;;;;5086190;28;20483;-53
2022/06/29 01:22:19;;;;;;;2.30;1.00;;;15.50;99.90;;;;;;5073914;28;20048;-50
2022/06/29 01:24:46;;;;;;;4.35;1.23;;;15.40;99.90;;;;;;5076305;28;20550;-50
2022/06/29 01:27:13;;;;;;;3.88;1.40;;;15.40;99.90;;;;;;5089858;28;20040;-50
2022/06/29 01:29:39;;;;;;;1.95;1.40;;;15.40;99.90;;;;;;5072562;28;20123;-54
2022/06/29 01:32:05;;;;;;;2.05;0.80;;;15.30;99.90;;;;;;5080125;28;20094;-53
2022/06/29 01:34:32;;;;;;;1.42;0.98;;;15.30;99.90;;;;;;5066948;28;20044;-50
2022/06/29 01:36:59;;;;;;;4.03;1.13;;;15.20;99.90;;;;;;5078172;28;20588;-49
2022/06/29 01:39:25;;;;;;;1.73;1.05;;;15.10;99.90;;;;;;5074945;28;20457;-50
2022/06/29 01:41:50;;;;;;;2.40;1.10;;;15.10;99.90;;;;;;5072282;28;20508;-50
2022/06/29 01:44:16;;;;;;;7.65;1.35;;;15.10;99.90;;;;;;5082326;28;20032;-50
2022/06/29 01:46:41;;;;;;;3.42;1.05;;;15.00;99.90;;;;;;5080214;28;20048;-51
2022/06/29 01:49:07;;;;;;;1.60;1.50;;;15.00;99.90;;;;;;5080872;28;20036;-52
2022/06/29 01:51:33;;;;;;;2.55;1.58;;;15.00;99.90;;;;;;5088595;28;20516;-51
2022/06/29 01:53:59;;;;;;;;;;;15.00;99.90;;;;;;5075072;28;20082;-50
2022/06/29 01:56:24;;;;;;;3.75;1.80;;;15.00;99.90;;;;;;5066517;28;19964;-50
2022/06/29 01:58:50;;;;;;;3.92;1.67;;;15.00;99.90;;;;;;5073336;28;20032;-53
2022/06/29 02:01:15;;;;;;;5.45;1.83;;;14.90;99.90;;;;;;5087292;28;20493;-53
2022/06/29 02:03:41;;;;;;;3.00;1.50;;;14.90;99.90;;;;;;5070496;28;20032;-50
2022/06/29 02:06:07;;;;;;;4.95;1.50;;;14.90;99.90;;;;;;5071354;28;20434;-49
2022/06/29 02:08:33;;;;;;;2.17;1.77;;;14.90;99.90;;;;;;5079904;28;20126;-50
2022/06/29 02:10:59;;;;;;;2.55;1.80;;;14.80;99.90;;;;;;5072489;28;20045;-50
2022/06/29 02:13:25;;;;;;;8.40;1.80;;;14.80;99.90;;;;;;5069118;28;20141;-53
2022/06/29 02:15:51;;;;;;;5.00;2.28;;;14.80;99.90;;;;;;5077085;28;20414;-50
2022/06/29 02:18:16;;;;;;;2.63;1.70;;;14.80;99.90;;;;;;5069317;28;20028;-53
2022/06/29 02:20:42;;;;;;;2.33;1.83;;;14.80;99.90;;;;;;5050299;28;20422;-50
2022/06/29 02:23:07;;;;;;;4.18;1.90;;;14.90;99.90;;;;;;5058254;28;20528;-50
2022/06/29 02:25:33;;;;;;;3.67;2.00;;;14.80;99.90;;;;;;5073242;28;20028;-50
2022/06/29 02:27:59;;;;;;;1.98;1.58;;;14.80;99.90;;;;;;5064895;28;20024;-52
2022/06/29 02:34:43;;;;;;;3.55;1.80;;;14.80;99.90;;;;;;5088212;28;20071;-52
2022/06/29 02:35:55;;;;;;;2.63;1.60;;;14.70;99.90;;;;;;5090057;28;20044;-53
2022/06/29 02:38:21;;;;;;;6.25;2.20;;;14.80;99.90;;;;;;5067161;28;20037;-50
2022/06/29 02:40:47;;;;;;;1.88;1.52;;;14.70;99.90;;;;;;5082124;28;20189;-50
2022/06/29 02:43:12;;;;;;;5.03;1.90;;;14.70;99.90;;;;;;5070900;28;20493;-50
2022/06/29 02:45:38;;;;;;;2.67;1.88;;;14.80;99.90;;;;;;5080985;28;20274;-50
2022/06/29 02:48:03;;;;;;;1.92;1.65;;;14.80;99.90;;;;;;5072779;28;20036;-50
2022/06/29 02:50:29;;;;;;;1.95;1.73;;;14.70;99.90;;;;;;5069105;28;20071;-51
2022/06/29 02:52:55;;;;;;;1.67;1.40;;;14.70;99.90;;;;;;5074682;28;20062;-53
2022/06/29 02:55:21;;;;;;;4.28;1.95;;;14.70;99.90;;;;;;5070169;28;20052;-51
2022/06/29 02:57:46;;;;;;;3.47;1.80;;;14.70;99.90;;;;;;5070624;28;20033;-53
2022/06/29 03:00:13;;;;;;;3.55;1.88;;;14.60;99.90;;;;;;5077568;28;20035;-50
2022/06/29 03:02:39;;;;;;;4.60;1.67;;;14.60;99.90;;;;;;5066888;28;20055;-49
2022/06/29 03:05:05;;;;;;;3.17;1.90;;;14.60;99.90;;;;;;5062845;28;20552;-50
2022/06/29 03:07:31;;;;;;;;;;;14.60;99.90;;;;;;5085595;28;20040;-50
2022/06/29 03:09:57;;;;;;;3.95;1.75;;;14.60;99.90;;;;;;5069673;28;20062;-53
2022/06/29 03:12:22;;;;;;;7.65;1.60;;;14.60;99.90;;;;;;5085295;28;20533;-50
2022/06/29 03:14:48;;;;;;;5.80;2.13;;;14.60;99.90;;;;;;5075880;28;20032;-50
2022/06/29 03:17:13;;;;;;;3.08;2.58;;;14.60;99.90;;;;;;5089467;28;20036;-53
2022/06/29 03:19:39;;;;;;;3.40;2.08;;;14.60;99.90;;;;;;5070572;28;20127;-49
2022/06/29 03:22:04;;;;;;;2.30;1.83;;;14.70;99.90;;;;;;5079486;28;20040;-52
2022/06/29 03:24:31;;;;;;;2.63;2.38;;;14.70;99.90;;;;;;5083290;28;20282;-51
2022/06/29 03:26:56;;;;;;;3.03;2.40;;;14.70;99.90;;;;;;5068101;28;20406;-50
2022/06/29 03:29:22;;;;;;;4.30;2.00;;;14.60;99.90;;;;;;5083334;28;20078;-53
2022/06/29 03:31:47;;;;;;;3.80;2.20;;;14.60;99.90;;;;;;5068202;28;20056;-49
2022/06/29 03:34:13;;;;;;;5.28;2.28;;;14.70;99.90;;;;;;5065668;28;20033;-50
2022/06/29 03:36:39;;;;;;;4.35;2.03;;;14.70;99.90;;;;;;5077783;28;20506;-49
2022/06/29 03:39:04;;;;;;;4.03;2.65;;;14.70;99.90;;;;;;5071413;28;20570;-50
2022/06/29 03:41:30;;;;;;;2.53;2.30;;;14.70;99.90;;;;;;5058342;28;20167;-54
2022/06/29 03:43:56;;;;;;;3.78;2.15;;;14.70;99.90;;;;;;5071163;28;20278;-49
2022/06/29 03:46:21;;;;;;;4.78;2.40;;;14.70;99.90;;;;;;5052146;28;20049;-50
2022/06/29 03:48:47;;;;;;;2.90;2.17;;;14.70;99.90;;;;;;5068355;28;20036;-50
2022/06/29 03:51:13;;;;;;;6.25;2.90;;;14.70;99.90;;;;;;5083037;28;20043;-54
2022/06/29 03:53:38;;;;;;;3.72;2.47;;;14.70;99.90;;;;;;5077716;28;20489;-50
2022/06/29 03:56:04;;;;;;;2.53;2.33;;;14.70;99.90;;;;;;5093326;28;20072;-49
2022/06/29 03:58:29;;;;;;;5.70;3.17;;;14.70;99.90;;;;;;5085210;28;20036;-53
2022/06/29 04:00:55;;;;;;;2.58;2.38;;;14.70;99.90;;;;;;5073754;28;20041;-53
2022/06/29 04:03:21;;;;;;;3.00;2.80;;;14.60;99.90;;;;;;5069776;28;20629;-49
2022/06/29 04:05:47;;;;;;;3.40;2.72;;;14.60;99.90;;;;;;5069540;28;20291;-50
2022/06/29 04:08:12;;;;;;;3.25;2.72;;;14.60;99.90;;;;;;5073901;28;20044;-49
2022/06/29 04:10:38;;;;;;;5.38;3.10;;;14.60;99.90;;;;;;5073680;28;20071;-51
2022/06/29 04:13:03;;;;;;;4.25;2.55;;;14.60;99.90;;;;;;5081192;28;20047;-51
2022/06/29 04:15:29;;;;;;;2.75;2.55;;;14.60;99.90;;;;;;5091028;28;20632;-50
2022/06/29 04:17:54;;;;;;;4.38;3.45;;;14.60;99.90;;;;;;5087143;28;20071;-50
2022/06/29 04:23:04;;;;;;;4.28;2.80;;;14.60;99.90;;;;;;5080705;28;20041;-53
2022/06/29 04:25:30;;;;;;;5.05;2.40;;;14.50;99.90;;;;;;5068734;28;20032;-50
2022/06/29 04:27:56;;;;;;;5.05;3.28;;;14.50;99.90;;;;;;5085004;28;20399;-50
2022/06/29 04:30:22;;;;;;;2.45;2.25;;;14.50;99.90;;;;;;5062401;28;20058;-50
2022/06/29 04:32:47;;;;;;;4.95;2.90;;;14.50;99.90;;;;;;5069507;28;20044;-50
2022/06/29 04:35:13;;;;;;;3.70;3.50;;;14.60;99.90;;;;;;5071965;28;20063;-53
2022/06/29 04:37:38;;;;;;;3.78;2.65;;;14.50;99.90;;;;;;5072956;28;20037;-50
2022/06/29 04:40:04;;;;;;;7.10;3.25;;;14.50;99.90;;;;;;5077189;28;20035;-49
2022/06/29 04:42:30;;;;;;;3.63;3.33;;;14.50;99.90;;;;;;5089842;28;20047;-50
2022/06/29 04:44:56;;;;;;;3.58;3.38;;;14.40;99.90;;;;;;5055279;28;20249;-51
2022/06/29 04:47:21;;;;;;;4.70;4.35;;;14.40;99.90;;;;;;5051928;28;20041;-53
2022/06/29 04:49:47;;;;;;;6.55;4.88;;;14.50;99.90;;;;;;5087708;28;20040;-51
2022/06/29 04:52:13;;;;;;;7.57;5.30;;;14.50;99.90;;;;;;5069205;28;20040;-50
2022/06/29 04:54:39;;;;;;;7.10;5.88;;;14.50;99.90;;;;;;5071630;28;20041;-52
2022/06/29 04:57:06;;;;;;;9.23;5.18;;;14.60;99.90;;;;;;5090629;28;20115;-51
2022/06/29 04:59:33;;;;;;;6.47;5.22;;;14.70;99.90;;;;;;5074703;28;20135;-52
2022/06/29 05:01:58;;;;;;;5.60;5.20;;;14.70;99.90;;;;;;5072480;28;20045;-51
2022/06/29 05:04:24;;;;;;;10.73;6.63;;;14.80;99.90;;;;;;5070951;28;20039;-50
2022/06/29 05:06:50;;;;;;;6.30;5.70;;;14.90;99.90;;;;;;5080348;28;20166;-50
2022/06/29 05:09:15;;;;;;;7.85;6.30;;;14.90;99.90;;;;;;5083418;28;20037;-50
2022/06/29 05:11:41;;;;;;;6.68;6.18;;;15.00;99.90;;;;;;5079970;28;20040;-55
2022/06/29 05:14:09;;;;;;;9.25;6.93;;;15.10;99.90;;;;;;5071886;28;20044;-50
2022/06/29 05:16:35;;;;;;;7.05;6.40;;;15.10;99.90;;;;;;5070599;28;20115;-50
2022/06/29 05:19:01;;;;;;;6.55;5.93;;;15.20;99.90;;;;;;5072396;28;20509;-49
2022/06/29 05:21:27;;;;;;;;;;;15.30;99.90;;;;;;5065775;28;20052;-50
2022/06/29 05:23:52;;;;;;;9.45;6.82;;;15.40;99.90;;;;;;5082237;28;20369;-51
2022/06/29 05:26:18;;;;;;;8.93;7.10;;;15.50;99.90;;;;;;5071823;28;20057;-50
2022/06/29 05:28:44;;;;;;;9.30;7.45;;;15.60;99.90;;;;;;5074429;28;20020;-52
2022/06/29 05:31:10;;;;;;;7.47;6.88;;;15.60;99.90;;;;;;5061531;28;20120;-49
2022/06/29 05:33:38;;;;;;;7.97;7.30;;;15.70;99.90;;;;;;5079638;28;20055;-49
2022/06/29 05:36:08;;;;;;;7.68;6.90;;;15.80;99.90;;;;;;5062299;28;20033;-55
2022/06/29 05:38:34;;;;;;;9.77;7.78;;;15.90;99.90;;;;;;5087614;28;20024;-50
2022/06/29 05:41:02;;;;;;;;;;;16.00;99.90;;;;;;5054616;28;20033;-54
2022/06/29 05:43:32;;;;;;;10.40;5.78;;;16.10;99.90;;;;;;5055092;28;19923;-54
2022/06/29 05:45:58;;;;;;;5.78;5.38;;;16.20;99.90;;;;;;5052519;28;20032;-51
2022/06/29 05:48:24;;;;;;;6.70;5.55;;;16.20;99.90;;;;;;5051204;28;20187;-51
2022/06/29 05:50:49;;;;;;;9.35;6.30;;;16.40;99.90;;;;;;5051045;28;20132;-49
2022/06/29 05:53:16;;;;;;;6.40;5.32;;;16.40;99.90;;;;;;5049712;28;20077;-51
2022/06/29 05:55:42;;;;;;;6.32;5.50;;;16.60;99.90;;;;;;5059871;28;20029;-50
2022/06/29 05:58:07;;;;;;;5.25;4.75;;;16.60;99.90;;;;;;5068526;28;20074;-50
2022/06/29 06:00:33;;;;;;;6.10;4.55;;;16.70;99.90;;;;;;5067427;28;20050;-52
2022/06/29 06:02:59;;;;;;;4.88;4.38;;;16.90;99.90;;;;;;5050925;28;20115;-50
2022/06/29 06:05:24;;;;;;;6.28;3.97;;;16.90;99.90;;;;;;5050779;28;20120;-50
2022/06/29 06:07:50;;;;;;;5.88;4.10;;;17.00;99.90;;;;;;5071039;28;20098;-49
2022/06/29 06:10:15;;;;;;;7.15;4.40;;;17.10;99.90;;;;;;5075651;28;20421;-52
2022/06/29 06:12:41;;;;;;;7.70;3.53;;;17.20;99.90;;;;;;5059061;28;20047;-55
2022/06/29 06:15:07;;;;;;;5.05;4.22;;;17.30;99.90;;;;;;5049446;28;20391;-50
2022/06/29 06:17:33;;;;;;;5.13;4.72;;;17.40;99.90;;;;;;5057465;28;20041;-49
2022/06/29 06:19:59;;;;;;;9.80;5.15;;;17.50;99.90;;;;;;5062239;28;20543;-49
2022/06/29 06:22:25;;;;;;;203.57;19.67;;;17.60;99.90;;;;;;5065027;28;20040;-51
2022/06/29 06:24:50;;;;;;;6.40;3.95;;;17.60;99.90;;;;;;5062955;28;20482;-52
2022/06/29 06:27:16;;;;;;;8.35;4.30;;;17.70;99.90;;;;;;5064432;28;20108;-50
2022/06/29 06:29:42;;;;;;;15.45;4.95;;;17.80;99.90;;;;;;5053959;28;20444;-51
2022/06/29 06:32:08;;;;;;;11.38;4.18;;;18.00;99.90;;;;;;5064739;28;20040;-53
2022/06/29 06:34:34;;;;;;;13.77;4.13;;;18.10;99.90;;;;;;5067555;28;20040;-51
2022/06/29 06:36:59;;;;;;;6.00;2.88;;;18.10;99.90;;;;;;5068387;28;20116;-50
2022/06/29 06:39:26;;;;;;;4.88;3.03;;;18.20;99.90;;;;;;5059173;28;20289;-50
2022/06/29 06:41:52;;;;;;;3.38;2.72;;;18.30;99.90;;;;;;5080372;28;20308;-50
2022/06/29 06:44:17;;;;;;;4.47;3.33;;;18.50;99.90;;;;;;5059188;28;20089;-50
2022/06/29 06:46:48;;;;;;;4.85;2.30;;;18.50;99.90;;;;;;5064460;28;20036;-54
2022/06/29 06:49:20;;;;;;;5.38;2.42;;;18.70;99.90;;;;;;5060456;28;20036;-52
2022/06/29 06:51:45;;;;;;;3.50;2.83;;;18.80;99.90;;;;;;5062681;28;20075;-52
2022/06/29 06:54:11;;;;;;;6.32;3.08;;;18.80;99.90;;;;;;5058810;28;20055;-54
2022/06/29 06:56:36;;;;;;;3.85;2.67;;;18.80;99.90;;;;;;5063203;28;20044;-54
2022/06/29 06:59:02;;;;;;;3.67;2.58;;;18.90;99.90;;;;;;5045261;28;20033;-53
2022/06/29 07:01:28;;;;;;;2.58;2.38;;;18.90;99.90;;;;;;5053172;28;20064;-52
2022/06/29 07:03:53;;;;;;;6.72;3.10;;;19.00;99.90;;;;;;5064868;28;20193;-49
2022/06/29 07:06:19;;;;;;;3.30;1.80;;;19.10;99.90;;;;;;5049939;28;20326;-51
2022/06/29 07:08:46;;;;;;;3.15;2.33;;;19.30;99.90;;;;;;5052948;28;20467;-55
2022/06/29 07:11:13;;;;;;;4.47;2.35;;;19.40;99.90;;;;;;5062450;28;20037;-49
2022/06/29 07:13:38;;;;;;;8.02;2.47;;;19.60;99.90;;;;;;5064521;28;20055;-52
2022/06/29 07:16:05;;;;;;;5.95;1.60;;;19.70;99.90;;;;;;5051902;28;20759;-48
2022/06/29 07:18:32;;;;;;;4.75;2.10;;;19.90;99.90;;;;;;5054730;28;20033;-55
2022/06/29 07:20:58;;;;;;;6.40;1.90;;;20.00;99.90;;;;;;5058948;28;20040;-50
2022/06/29 07:23:23;;;;;;;;;;;20.10;99.90;;;;;;5052532;28;20041;-54
2022/06/29 07:25:49;;;;;;;4.32;1.98;;;20.30;99.90;;;;;;5050355;28;19928;-53
2022/06/29 07:28:14;;;;;;;;;;;20.40;99.90;;;;;;5052762;28;20139;-52
2022/06/29 07:30:40;;;;;;;4.80;1.23;;;20.50;99.90;;;;;;5053975;28;20290;-56
2022/06/29 07:33:08;;;;;;;;;;;20.50;99.90;;;;;;5059690;28;20098;-50
2022/06/29 07:35:34;;;;;;;5.18;1.23;;;20.60;99.90;;;;;;5069500;28;19920;-52
2022/06/29 07:38:00;;;;;;;2.15;1.05;;;20.60;99.90;;;;;;5066556;28;20381;-50
2022/06/29 07:40:26;;;;;;;3.88;1.67;;;20.60;99.90;;;;;;5067647;28;20068;-54
2022/06/29 07:42:51;;;;;;;;;;;20.70;99.90;;;;;;5048203;28;20040;-55
2022/06/29 07:45:17;;;;;;;1.35;0.90;;;20.90;99.90;;;;;;5048951;28;19950;-51
2022/06/29 07:47:42;;;;;;;;;;;21.00;99.90;;;;;;5055437;28;20033;-53
2022/06/29 07:50:11;;;;;;;3.65;0.70;;;21.10;99.30;;;;;;5066301;28;19920;-50
2022/06/29 07:52:37;;;;;;;1.00;0.60;;;21.10;99.90;;;;;;5065096;28;20076;-56
2022/06/29 07:55:03;;;;;;;6.30;0.80;;;21.20;99.90;;;;;;5060861;28;20114;-50
2022/06/29 07:57:28;;;;;;;;;;;21.20;99.90;;;;;;5073311;28;20186;-51
2022/06/29 07:59:54;;;;;;;10.55;1.08;;;21.20;99.90;;;;;;5048810;28;19920;-52
2022/06/29 08:02:19;;;;;;;;;;;21.20;99.60;;;;;;5053059;28;20070;-50
2022/06/29 08:04:45;;;;;;;1.10;0.63;;;21.20;99.30;;;;;;5072812;28;19985;-54
2022/06/29 08:07:11;;;;;;;;;;;21.30;99.60;;;;;;5076792;28;20082;-49
2022/06/29 08:09:36;;;;;;;4.10;0.47;;;21.40;99.90;;;;;;5074959;28;20398;-52
2022/06/29 08:12:02;;;;;;;;;;;21.50;98.50;;;;;;5074865;28;20037;-49
2022/06/29 08:14:28;;;;;;;0.93;0.43;;;21.60;98.90;;;;;;5077039;28;19916;-50
2022/06/29 08:16:54;;;;;;;1.83;0.47;;;21.70;98.20;;;;;;5073818;28;20033;-54
2022/06/29 08:19:20;;;;;;;;;;;21.70;97.80;;;;;;5077995;28;20078;-50
2022/06/29 08:21:45;;;;;;;3.13;0.60;;;21.80;97.00;;;;;;5076212;28;19920;-49
2022/06/29 08:24:11;;;;;;;;;;;21.90;97.00;;;;;;5076764;28;20191;-52
2022/06/29 08:26:36;;;;;;;4.40;0.50;;;22.00;95.70;;;;;;5078588;28;20292;-50
2022/06/29 08:29:02;;;;;;;;;;;22.00;96.10;;;;;;5066776;28;20060;-53
2022/06/29 08:31:28;;;;;;;1.52;0.50;;;22.10;96.20;;;;;;5078583;28;19942;-53
2022/06/29 08:33:54;;;;;;;;;;;22.10;96.40;;;;;;5076101;28;20036;-49
2022/06/29 08:36:19;;;;;;;0.82;0.50;;;22.20;97.10;;;;;;5074370;28;20213;-50
2022/06/29 08:38:45;;;;;;;;;;;22.20;96.70;;;;;;5076319;28;20048;-55
2022/06/29 08:41:12;;;;;;;2.15;0.52;;;22.20;97.00;;;;;;5073363;28;20473;-57
2022/06/29 08:43:37;;;;;;;1.00;0.80;;;22.30;97.10;;;;;;5074768;28;20036;-53
2022/06/29 08:46:03;;;;;;;;;;;22.30;97.00;;;;;;5073422;28;20032;-51
2022/06/29 08:48:30;;;;;;;1.98;0.80;;;22.30;96.00;;;;;;5074607;28;20511;-50
2022/06/29 08:50:56;;;;;;;1.00;0.50;;;22.40;97.20;;;;;;5076114;28;20032;-54
2022/06/29 08:53:22;;;;;;;;;;;22.50;97.50;;;;;;5074101;28;20039;-53
2022/06/29 08:55:50;;;;;;;3.15;0.68;;;22.60;96.50;;;;;;5073591;28;19916;-53
2022/06/29 08:58:21;;;;;;;2.63;0.60;;;22.60;96.80;;;;;;5077323;28;20032;-53
2022/06/29 09:00:49;;;;;;;2.92;0.73;;;22.70;96.50;;;;;;5073087;28;20055;-56
2022/06/29 09:03:17;;;;;;;3.67;0.70;;;22.70;96.60;;;;;;5070944;28;20090;-49
2022/06/29 09:05:50;;;;;;;1.83;0.90;;;22.80;96.90;;;;;;5073673;28;20146;-50
2022/06/29 09:08:17;;;;;;;1.33;0.82;;;22.90;95.80;;;;;;5073800;28;20071;-56
2022/06/29 09:10:43;;;;;;;1.70;0.75;;;23.10;96.80;;;;;;5074938;28;20081;-53
2022/06/29 09:13:08;;;;;;;;;;;23.20;96.40;;;;;;5073686;28;20391;-53
2022/06/29 09:15:40;;;;;;;0.50;0.43;;;23.40;95.30;;;;;;5076541;28;19921;-50
2022/06/29 09:18:28;;;;;;;1.48;0.70;;;23.40;95.80;;;;;;5071723;28;20287;-60
2022/06/29 09:20:56;;;;;;;6.10;1.25;;;23.50;96.20;;;;;;5075045;28;20470;-50
2022/06/29 09:23:22;;;;;;;2.80;0.80;;;23.70;96.40;;;;;;5075131;28;20074;-51
2022/06/29 09:25:49;;;;;;;4.00;0.82;;;23.70;95.40;;;;;;5071892;28;20550;-50
2022/06/29 09:28:23;;;;;;;4.18;0.75;;;23.70;95.80;;;;;;5075452;28;20090;-52
2022/06/29 09:30:49;;;;;;;1.52;0.73;;;23.70;95.70;;;;;;5074306;28;20520;-51
2022/06/29 09:33:15;;;;;;;3.40;0.75;;;23.80;95.40;;;;;;5069202;28;20036;-53
2022/06/29 09:35:42;;;;;;;2.67;0.70;;;23.90;95.20;;;;;;5069215;28;20051;-53
2022/06/29 09:38:24;;;;;;;1.40;0.90;;;23.90;94.60;;;;;;5071964;28;20524;-55
2022/06/29 09:41:00;;;;;;;1.77;0.75;;;24.00;94.40;;;;;;5072106;28;20645;-50
2022/06/29 09:43:26;;;;;;;2.53;0.75;;;23.90;94.00;;;;;;5067759;28;20516;-50
2022/06/29 09:45:53;;;;;;;1.92;1.23;;;23.90;94.80;;;;;;5071691;28;20028;-52
2022/06/29 09:48:22;;;;;;;4.00;0.90;;;23.90;94.50;;;;;;5074077;28;20051;-50
2022/06/29 09:50:55;;;;;;;2.95;0.90;;;23.80;94.60;;;;;;5071156;28;20037;-52
2022/06/29 09:53:27;;;;;;;1.20;0.60;;;23.80;94.30;;;;;;5069045;28;20051;-53
2022/06/29 09:55:56;;;;;;;1.90;1.40;;;23.80;94.20;;;;;;5037923;28;20493;-55
2022/06/29 09:58:33;;;;;;;3.08;0.90;;;23.80;95.20;;;;;;5064091;28;20051;-51
2022/06/29 10:03:47;;;;;;;3.88;0.90;;;23.70;95.40;;;;;;5077756;28;20052;-52
2022/06/29 10:06:16;;;;;;;2.75;0.70;;;23.70;95.20;;;;;;5065090;28;20049;-49
2022/06/29 10:08:43;;;;;;;4.07;1.20;;;23.70;95.10;;;;;;5070450;28;20036;-51
2022/06/29 10:14:22;;;;;;;1.05;0.80;;;23.70;95.20;;;;;;5062930;28;20048;-50
2022/06/29 10:16:59;;;;;;;4.68;1.20;;;23.80;94.40;;;;;;5065493;28;20032;-53
2022/06/29 10:19:34;;;;;;;1.13;1.02;;;23.90;94.90;;;;;;5064969;28;20426;-50
2022/06/29 10:22:01;;;;;;;3.35;1.38;;;24.00;94.20;;;;;;5062583;28;20047;-53
2022/06/29 10:24:27;;;;;;;3.05;1.38;;;24.10;93.80;;;;;;5063577;28;20520;-49
2022/06/29 10:26:53;;;;;;;3.15;1.70;;;24.10;94.00;;;;;;5061025;28;20035;-52
2022/06/29 10:29:18;;;;;;;4.07;1.38;;;24.10;94.90;;;;;;5061627;28;20227;-52
2022/06/29 10:31:59;;;;;;;2.38;1.08;;;24.20;95.10;;;;;;5059806;28;20469;-52
2022/06/29 10:34:28;;;;;;;2.33;1.58;;;24.10;94.40;;;;;;5064460;28;20110;-50
2022/06/29 10:37:02;;;;;;;3.80;2.10;;;24.00;94.70;;;;;;5064372;28;20051;-53
2022/06/29 10:39:49;;;;;;;3.97;1.42;;;24.00;95.00;;;;;;5065337;28;20681;-51
2022/06/29 10:45:08;;;;;;;2.45;1.48;;;23.90;93.60;;;;;;5062602;28;20044;-51
2022/06/29 10:47:33;;;;;;;3.47;1.25;;;23.90;94.30;;;;;;5064783;28;20055;-50
2022/06/29 10:50:14;;;;;;;2.35;1.40;;;23.80;94.40;;;;;;5065363;28;20040;-54
2022/06/29 10:52:41;;;;;;;3.05;1.33;;;23.80;94.10;;;;;;5065551;28;20341;-50
2022/06/29 10:55:08;;;;;;;3.10;1.65;;;23.70;95.00;;;;;;5061321;28;20036;-52
2022/06/29 10:57:38;;;;;;;2.30;1.98;;;23.70;95.20;;;;;;5056840;28;20033;-54
2022/06/29 11:00:09;;;;;;;2.15;1.95;;;23.70;95.10;;;;;;5063850;28;20032;-49
2022/06/29 11:02:35;;;;;;;2.78;1.40;;;23.70;95.00;;;;;;5065421;28;20363;-51
2022/06/29 11:05:02;;;;;;;6.00;1.30;;;23.60;93.80;;;;;;5063032;28;20339;-53
2022/06/29 11:12:58;;;;;;;5.22;2.05;;;23.50;94.30;;;;;;5028074;28;20134;-53
2022/06/29 11:18:30;;;;;;;3.72;1.60;;;23.60;95.00;;;;;;5057096;28;20052;-54
2022/06/29 11:21:02;;;;;;;5.43;1.42;;;23.70;95.20;;;;;;5061202;28;20040;-56
2022/06/29 11:23:35;;;;;;;4.35;2.08;;;23.70;94.20;;;;;;5057873;28;20674;-53
2022/06/29 11:26:05;;;;;;;2.35;1.30;;;23.80;93.60;;;;;;5054302;28;20126;-53
2022/06/29 11:28:32;;;;;;;3.90;1.75;;;23.80;93.80;;;;;;5061256;28;20060;-51
2022/06/29 11:31:02;;;;;;;5.95;2.20;;;23.80;94.50;;;;;;5061332;28;20044;-53
2022/06/29 11:33:30;;;;;;;5.60;2.08;;;23.90;94.50;;;;;;5058687;28;20040;-53
2022/06/29 11:35:56;;;;;;;5.07;2.10;;;23.90;93.80;;;;;;5066135;28;20036;-54
2022/06/29 11:38:28;;;;;;;3.70;2.53;;;23.90;94.20;;;;;;5058756;28;20029;-49
2022/06/29 11:40:54;;;;;;;2.33;2.10;;;24.00;93.70;;;;;;5058078;28;20610;-50
2022/06/29 11:43:21;;;;;;;7.20;2.75;;;24.00;94.30;;;;;;5053741;28;20051;-53
2022/06/29 11:45:48;;;;;;;2.90;2.60;;;23.90;93.40;;;;;;5062165;28;20032;-53
2022/06/29 11:48:27;;;;;;;6.53;2.33;;;24.00;94.30;;;;;;5058031;28;20063;-52
2022/06/29 11:51:01;;;;;;;8.13;2.45;;;24.00;93.50;;;;;;5055960;28;20093;-52
2022/06/29 11:53:43;;;;;;;3.25;2.05;;;24.10;92.80;;;;;;5055766;28;20041;-52
2022/06/29 11:56:20;;;;;;;4.90;1.85;;;24.10;94.50;;;;;;5059783;28;20051;-53
2022/06/29 11:58:49;;;;;;;4.38;2.10;;;24.10;94.20;;;;;;5059222;28;20489;-51
2022/06/29 12:01:18;;;;;;;3.03;1.50;;;24.20;94.40;;;;;;5055239;28;20041;-54
2022/06/29 12:03:52;;;;;;;3.13;2.63;;;24.10;93.90;;;;;;5058997;28;20047;-54
2022/06/29 12:06:19;;;;;;;5.03;2.05;;;24.10;94.00;;;;;;5052704;28;20508;-52
2022/06/29 12:08:45;;;;;;;2.35;2.13;;;24.10;93.90;;;;;;5062990;28;20044;-53
2022/06/29 12:11:11;;;;;;;1.95;1.75;;;24.20;94.30;;;;;;5051717;28;20475;-52
2022/06/29 12:13:37;;;;;;;2.55;1.85;;;24.20;94.00;;;;;;5057540;28;20044;-55
2022/06/29 12:16:03;;;;;;;3.25;1.67;;;24.20;93.70;;;;;;5058411;28;20036;-54
2022/06/29 12:18:29;;;;;;;4.13;1.77;;;24.30;94.60;;;;;;5062313;28;20068;-51
2022/06/29 12:20:55;;;;;;;4.90;2.42;;;24.30;94.70;;;;;;5059819;28;20537;-51
2022/06/29 12:23:21;;;;;;;5.35;2.35;;;24.40;94.30;;;;;;5058160;28;20071;-52
2022/06/29 12:25:46;;;;;;;3.63;1.65;;;24.40;94.90;;;;;;5062101;28;20383;-54
2022/06/29 12:28:12;;;;;;;2.95;2.17;;;24.50;94.00;;;;;;5063984;28;20382;-53
2022/06/29 12:30:38;;;;;;;3.20;1.92;;;24.60;94.00;;;;;;5072864;28;20480;-51
2022/06/29 12:33:04;;;;;;;6.50;1.98;;;24.50;94.20;;;;;;5065390;28;20123;-51
2022/06/29 12:35:30;;;;;;;3.90;1.70;;;24.60;95.00;;;;;;5072061;28;20712;-51
2022/06/29 12:37:57;;;;;;;2.63;1.80;;;24.60;93.90;;;;;;5067671;28;20063;-50
2022/06/29 12:40:27;;;;;;;4.80;1.90;;;24.80;93.10;;;;;;5069850;28;20126;-52
2022/06/29 12:42:53;;;;;;;5.68;2.47;;;24.80;92.30;;;;;;5067368;28;20028;-53
2022/06/29 12:45:19;;;;;;;3.97;1.80;;;24.90;93.30;;;;;;5069117;28;20241;-51
2022/06/29 12:47:45;;;;;;;7.07;2.92;;;25.00;91.70;;;;;;5066670;28;20054;-51
2022/06/29 12:50:11;;;;;;;5.10;2.85;;;24.90;91.20;;;;;;5064129;28;20068;-55
2022/06/29 12:52:40;;;;;;;4.43;2.47;;;24.90;91.40;;;;;;5067602;28;20189;-54
2022/06/29 12:55:08;;;;;;;4.45;2.10;;;24.80;91.60;;;;;;5063936;28;20441;-54
2022/06/29 12:57:34;;;;;;;4.70;2.53;;;24.70;91.70;;;;;;5065407;28;20075;-54
2022/06/29 12:59:59;;;;;;;3.85;3.45;;;24.80;92.80;;;;;;5067993;28;20032;-54
2022/06/29 13:02:25;;;;;;;6.53;2.00;;;24.80;92.20;;;;;;5067861;28;20075;-52
2022/06/29 13:04:50;;;;;;;6.63;2.38;;;24.90;91.90;;;;;;5062092;28;20386;-54
2022/06/29 13:07:16;;;;;;;3.92;2.50;;;24.90;92.00;;;;;;5065661;28;20043;-51
2022/06/29 13:09:41;;;;;;;2.42;2.25;;;24.90;91.40;;;;;;5067893;28;20072;-53
2022/06/29 13:12:07;;;;;;;3.20;2.03;;;24.90;92.10;;;;;;5066193;28;20040;-54
2022/06/29 13:14:33;;;;;;;3.03;2.05;;;25.00;92.00;;;;;;5066471;28;20383;-52